createdAt,value
2018-06-05T00:01:53.676Z,3.60
2018-06-05T00:04:22.863Z,3.63
2018-06-05T00:06:52.064Z,4.00
2018-06-05T00:09:21.263Z,3.53
2018-06-05T00:11:50.548Z,3.60
2018-06-05T00:14:19.833Z,3.60
2018-06-05T00:16:49.127Z,3.80
2018-06-05T00:19:18.352Z,3.70
2018-06-05T00:21:47.596Z,3.43
2018-06-05T00:24:16.857Z,3.73
2018-06-05T00:26:46.047Z,3.60
2018-06-05T00:29:15.256Z,3.70
2018-06-05T00:31:44.560Z,3.67
2018-06-05T00:34:13.752Z,3.60
2018-06-05T00:36:42.946Z,3.80
2018-06-05T00:39:12.161Z,3.43
2018-06-05T00:41:41.449Z,3.80
2018-06-05T00:44:10.642Z,3.97
2018-06-05T00:46:39.855Z,4.00
2018-06-05T00:49:09.293Z,3.80
2018-06-05T00:51:49.548Z,3.83
2018-06-05T00:54:18.740Z,3.63
2018-06-05T00:56:47.967Z,4.10
2018-06-05T00:59:17.179Z,3.97
2018-06-05T01:01:46.440Z,4.00
2018-06-05T01:04:15.645Z,3.97
2018-06-05T01:06:44.860Z,4.33
2018-06-05T01:09:14.063Z,4.17
2018-06-05T01:11:43.260Z,4.30
2018-06-05T01:14:12.455Z,4.20
2018-06-05T01:16:41.653Z,4.00
2018-06-05T01:19:10.953Z,4.83
2018-06-05T01:21:40.193Z,4.40
2018-06-05T01:24:09.389Z,4.30
2018-06-05T01:26:38.596Z,4.30
2018-06-05T01:29:07.885Z,4.10
2018-06-05T01:31:37.192Z,4.93
2018-06-05T01:34:06.420Z,4.17
2018-06-05T01:36:35.625Z,4.47
2018-06-05T01:39:07.239Z,4.23
2018-06-05T01:41:36.564Z,4.53
2018-06-05T01:44:05.806Z,4.33
2018-06-05T01:46:34.972Z,4.93
2018-06-05T01:49:04.167Z,4.90
2018-06-05T01:51:33.580Z,4.30
2018-06-05T01:54:02.780Z,4.27
2018-06-05T01:56:31.989Z,4.90
2018-06-05T01:59:01.215Z,4.37
2018-06-05T02:01:30.426Z,4.73
2018-06-05T02:03:59.630Z,4.90
2018-06-05T02:06:28.828Z,4.17
2018-06-05T02:08:58.030Z,4.73
2018-06-05T02:11:27.329Z,5.00
2018-06-05T02:13:56.532Z,4.67
2018-06-05T02:16:25.740Z,4.50
2018-06-05T02:18:54.990Z,4.37
2018-06-05T02:21:24.220Z,5.00
2018-06-05T02:23:53.660Z,4.73
2018-06-05T02:26:22.888Z,4.73
2018-06-05T02:28:52.089Z,4.40
2018-06-05T02:31:21.356Z,4.43
2018-06-05T02:33:50.586Z,4.27
2018-06-05T02:36:19.809Z,4.80
2018-06-05T02:38:49.023Z,4.10
2018-06-05T02:41:18.556Z,4.50
2018-06-05T02:43:47.788Z,4.27
2018-06-05T02:46:16.986Z,4.00
2018-06-05T02:48:46.178Z,4.30
2018-06-05T02:51:15.448Z,4.33
2018-06-05T02:53:44.649Z,4.00
2018-06-05T02:56:14.077Z,4.17
2018-06-05T02:58:43.280Z,4.10
2018-06-05T03:01:12.752Z,3.60
2018-06-05T03:03:41.974Z,3.70
2018-06-05T03:06:11.185Z,3.87
2018-06-05T03:08:40.962Z,4.10
2018-06-05T03:11:10.305Z,4.57
2018-06-05T03:13:39.531Z,4.17
2018-06-05T03:16:08.720Z,4.13
2018-06-05T03:18:37.913Z,4.13
2018-06-05T03:21:07.113Z,4.33
2018-06-05T03:23:36.311Z,3.80
2018-06-05T03:26:05.509Z,4.17
2018-06-05T03:28:34.789Z,4.67
2018-06-05T03:31:04.116Z,3.87
2018-06-05T03:33:33.321Z,4.43
2018-06-05T03:36:02.517Z,4.40
2018-06-05T03:38:31.720Z,4.20
2018-06-05T03:41:01.100Z,4.30
2018-06-05T03:43:30.323Z,4.40
2018-06-05T03:45:59.499Z,4.50
2018-06-05T03:48:28.699Z,4.43
2018-06-05T03:50:57.904Z,5.10
2018-06-05T03:53:27.064Z,4.50
2018-06-05T03:55:56.241Z,5.00
2018-06-05T03:58:25.454Z,4.83
2018-06-05T04:00:54.838Z,4.90
2018-06-05T04:03:24.036Z,4.87
2018-06-05T04:05:53.233Z,5.13
2018-06-05T04:08:22.432Z,5.00
2018-06-05T04:10:51.734Z,5.03
2018-06-05T04:13:21.268Z,4.63
2018-06-05T04:15:50.500Z,4.33
2018-06-05T04:18:19.700Z,4.20
2018-06-05T04:20:49.084Z,5.17
2018-06-05T04:23:18.338Z,5.33
2018-06-05T04:25:47.569Z,5.13
2018-06-05T04:28:16.765Z,5.20
2018-06-05T04:30:46.005Z,4.40
2018-06-05T04:33:15.433Z,5.47
2018-06-05T04:35:44.703Z,5.10
2018-06-05T04:38:14.041Z,7.57
2018-06-05T04:40:43.338Z,10.60
2018-06-05T04:43:12.765Z,10.77
2018-06-05T04:45:42.382Z,11.83
2018-06-05T04:48:11.580Z,11.63
2018-06-05T04:50:40.951Z,11.87
2018-06-05T04:53:10.193Z,11.23
2018-06-05T04:55:39.412Z,12.07
2018-06-05T04:58:08.701Z,13.43
2018-06-05T05:00:38.001Z,10.67
2018-06-05T05:03:07.417Z,10.20
2018-06-05T05:05:36.801Z,8.73
2018-06-05T05:08:06.278Z,8.57
2018-06-05T05:10:35.584Z,8.60
2018-06-05T05:13:04.809Z,7.83
2018-06-05T05:15:34.124Z,7.50
2018-06-05T05:18:03.440Z,7.50
2018-06-05T05:20:32.778Z,6.73
2018-06-05T05:23:01.985Z,7.07
2018-06-05T05:25:31.283Z,7.20
2018-06-05T05:28:00.526Z,6.47
2018-06-05T05:30:29.924Z,6.50
2018-06-05T05:32:59.189Z,5.50
2018-06-05T05:35:28.590Z,5.87
2018-06-05T05:37:57.997Z,5.47
2018-06-05T05:40:27.333Z,5.83
2018-06-05T05:42:56.110Z,5.10
2018-06-05T05:45:25.408Z,5.37
2018-06-05T05:47:54.753Z,5.03
2018-06-05T05:50:24.182Z,5.30
2018-06-05T05:52:53.457Z,5.10
2018-06-05T05:55:22.755Z,5.27
2018-06-05T05:57:52.068Z,5.40
2018-06-05T06:00:21.335Z,4.77
2018-06-05T06:02:50.200Z,4.50
2018-06-05T06:05:19.659Z,4.90
2018-06-05T06:07:49.000Z,5.13
2018-06-05T06:10:18.383Z,4.57
2018-06-05T06:12:47.645Z,4.60
2018-06-05T06:15:16.957Z,4.53
2018-06-05T06:17:46.407Z,4.13
2018-06-05T06:20:15.814Z,4.07
2018-06-05T06:22:45.525Z,4.50
2018-06-05T06:25:14.844Z,4.00
2018-06-05T06:27:44.179Z,3.77
2018-06-05T06:30:13.612Z,4.30
2018-06-05T06:32:42.916Z,3.90
2018-06-05T06:35:12.234Z,3.80
2018-06-05T06:37:41.557Z,4.10
2018-06-05T06:40:11.072Z,3.80
2018-06-05T06:42:40.439Z,4.03
2018-06-05T06:45:09.720Z,3.70
2018-06-05T06:47:39.023Z,4.10
2018-06-05T06:50:08.416Z,4.03
2018-06-05T06:52:37.660Z,4.20
2018-06-05T06:55:07.414Z,3.70
2018-06-05T06:57:36.701Z,4.17
2018-06-05T07:00:06.164Z,3.90
2018-06-05T07:02:35.429Z,3.60
2018-06-05T07:05:04.827Z,4.00
2018-06-05T07:07:34.173Z,3.70
2018-06-05T07:10:03.659Z,3.20
2018-06-05T07:12:33.041Z,3.40
2018-06-05T07:15:02.343Z,3.53
2018-06-05T07:17:31.672Z,3.67
2018-06-05T07:20:00.920Z,3.37
2018-06-05T07:22:30.218Z,3.60
2018-06-05T07:24:59.524Z,3.80
2018-06-05T07:27:28.995Z,3.53
2018-06-05T07:29:58.284Z,3.70
2018-06-05T07:32:27.589Z,3.70
2018-06-05T07:34:56.950Z,3.40
2018-06-05T07:37:26.296Z,3.47
2018-06-05T07:39:55.592Z,3.43
2018-06-05T07:42:24.891Z,3.17
2018-06-05T07:44:54.191Z,3.30
2018-06-05T07:47:23.548Z,3.30
2018-06-05T07:49:52.877Z,3.30
2018-06-05T07:52:22.197Z,3.07
2018-06-05T07:54:51.045Z,3.50
2018-06-05T07:57:20.428Z,3.40
2018-06-05T07:59:49.900Z,3.13
2018-06-05T08:02:19.182Z,3.30
2018-06-05T08:04:48.529Z,3.30
2018-06-05T08:07:17.813Z,3.00
2018-06-05T08:09:47.107Z,3.27
2018-06-05T08:12:16.533Z,2.90
2018-06-05T08:14:45.959Z,3.27
2018-06-05T08:17:15.413Z,3.27
2018-06-05T08:19:44.764Z,3.27
2018-06-05T08:22:14.114Z,3.30
2018-06-05T08:24:43.512Z,2.97
2018-06-05T08:27:12.305Z,3.30
2018-06-05T08:29:41.127Z,3.13
2018-06-05T08:32:17.690Z,3.17
2018-06-05T08:34:47.032Z,3.13
2018-06-05T08:37:16.369Z,3.13
2018-06-05T08:39:45.652Z,3.00
2018-06-05T08:42:15.039Z,3.13
2018-06-05T08:44:44.332Z,2.90
2018-06-05T08:47:13.670Z,2.90
2018-06-05T08:49:43.868Z,2.97
2018-06-05T08:52:13.273Z,3.40
2018-06-05T08:54:42.680Z,2.83
2018-06-05T08:57:12.087Z,3.50
2018-06-05T08:59:41.473Z,3.27
2018-06-05T09:02:10.808Z,3.17
2018-06-05T09:04:40.224Z,3.10
2018-06-05T09:07:09.537Z,3.13
2018-06-05T09:09:38.863Z,3.03
2018-06-05T09:12:08.213Z,3.20
2018-06-05T09:14:37.586Z,3.20
2018-06-05T09:17:07.144Z,2.77
2018-06-05T09:19:36.474Z,3.10
2018-06-05T09:22:06.108Z,3.27
2018-06-05T09:24:35.648Z,3.17
2018-06-05T09:27:05.029Z,2.93
2018-06-05T09:29:33.934Z,3.00
2018-06-05T09:32:03.487Z,3.13
2018-06-05T09:34:33.259Z,3.20
2018-06-05T09:37:02.921Z,3.03
2018-06-05T09:39:32.251Z,2.93
2018-06-05T09:42:01.756Z,2.90
2018-06-05T09:44:31.109Z,2.93
2018-06-05T09:47:00.461Z,2.90
2018-06-05T09:49:29.783Z,3.10
2018-06-05T09:51:59.234Z,3.10
2018-06-05T09:54:28.700Z,3.10
2018-06-05T09:56:57.989Z,3.03
2018-06-05T09:59:27.282Z,2.93
2018-06-05T10:01:56.832Z,3.57
2018-06-05T10:04:26.213Z,3.57
2018-06-05T10:06:55.612Z,3.77
2018-06-05T10:09:24.982Z,3.27
2018-06-05T10:11:54.411Z,3.53
2018-06-05T10:14:23.784Z,3.77
2018-06-05T10:16:53.153Z,3.60
2018-06-05T10:19:22.456Z,3.70
2018-06-05T10:21:51.860Z,3.37
2018-06-05T10:24:21.236Z,3.50
2018-06-05T10:26:50.580Z,3.47
2018-06-05T10:29:19.888Z,3.63
2018-06-05T10:31:49.439Z,3.17
2018-06-05T10:34:25.108Z,3.40
2018-06-05T10:36:54.437Z,3.30
2018-06-05T10:39:23.748Z,3.37
2018-06-05T10:41:53.508Z,3.67
2018-06-05T10:44:22.851Z,3.00
2018-06-05T10:46:52.408Z,3.70
2018-06-05T10:49:21.726Z,3.40
2018-06-05T10:51:51.407Z,3.70
2018-06-05T10:54:21.104Z,4.23
2018-06-05T10:56:50.525Z,4.07
2018-06-05T10:59:19.896Z,4.20
2018-06-05T11:01:49.380Z,4.20
2018-06-05T11:04:18.737Z,3.83
2018-06-05T11:06:48.115Z,4.00
2018-06-05T11:09:17.435Z,3.80
2018-06-05T11:11:47.033Z,3.30
2018-06-05T11:14:16.870Z,3.43
2018-06-05T11:16:46.409Z,3.80
2018-06-05T11:19:15.956Z,3.53
2018-06-05T11:21:45.516Z,3.50
2018-06-05T11:24:14.854Z,3.90
2018-06-05T11:26:44.320Z,3.40
2018-06-05T11:29:13.683Z,3.30
2018-06-05T11:31:43.146Z,3.10
2018-06-05T11:34:12.459Z,3.30
2018-06-05T11:36:41.851Z,3.57
2018-06-05T11:39:11.243Z,3.30
2018-06-05T11:41:40.800Z,3.47
2018-06-05T11:44:10.208Z,3.27
2018-06-05T11:46:40.291Z,3.40
2018-06-05T11:49:09.628Z,3.60
2018-06-05T11:51:39.059Z,3.40
2018-06-05T11:54:08.453Z,3.20
2018-06-05T11:56:37.765Z,2.93
2018-06-05T11:59:07.133Z,3.40
2018-06-05T12:01:36.470Z,3.30
2018-06-05T12:04:05.816Z,3.37
2018-06-05T12:06:35.313Z,3.00
2018-06-05T12:09:06.406Z,3.67
2018-06-05T12:11:35.823Z,3.27
2018-06-05T12:14:05.207Z,3.93
2018-06-05T12:16:34.473Z,7.23
2018-06-05T12:19:03.996Z,19.87
2018-06-05T12:21:33.354Z,41.73
2018-06-05T12:24:02.618Z,38.80
2018-06-05T12:26:31.960Z,52.57
2018-06-05T12:29:01.356Z,60.07
2018-06-05T12:31:30.685Z,61.10
2018-06-05T12:34:00.026Z,63.60
2018-06-05T12:36:32.309Z,57.87
2018-06-05T12:39:01.698Z,57.93
2018-06-05T12:41:31.040Z,56.53
2018-06-05T12:44:00.403Z,59.50
2018-06-05T12:46:29.799Z,52.13
2018-06-05T12:48:59.208Z,49.37
2018-06-05T12:51:29.080Z,50.40
2018-06-05T12:53:58.353Z,49.70
2018-06-05T12:56:27.708Z,49.67
2018-06-05T12:58:57.073Z,50.43
2018-06-05T13:01:26.661Z,49.33
2018-06-05T13:03:56.009Z,52.87
2018-06-05T13:06:25.362Z,49.57
2018-06-05T13:08:54.718Z,51.33
2018-06-05T13:11:24.068Z,51.57
2018-06-05T13:13:53.386Z,49.93
2018-06-05T13:16:22.734Z,50.77
2018-06-05T13:18:52.045Z,53.73
2018-06-05T13:21:21.456Z,52.33
2018-06-05T13:23:51.948Z,50.33
2018-06-05T13:26:21.982Z,51.73
2018-06-05T13:28:51.828Z,52.63
2018-06-05T13:31:22.111Z,51.33
2018-06-05T13:33:52.321Z,51.87
2018-06-05T13:36:22.221Z,48.63
2018-06-05T13:38:51.619Z,46.97
2018-06-05T13:41:21.633Z,45.80
2018-06-05T13:43:51.532Z,45.33
2018-06-05T13:46:21.425Z,43.87
2018-06-05T13:48:51.406Z,43.57
2018-06-05T13:51:21.330Z,42.23
2018-06-05T13:53:51.296Z,42.60
2018-06-05T13:56:20.497Z,41.77
2018-06-05T13:58:50.466Z,39.37
2018-06-05T14:01:20.398Z,39.47
2018-06-05T14:03:50.737Z,38.37
2018-06-05T14:06:20.746Z,38.20
2018-06-05T14:08:50.739Z,38.87
2018-06-05T14:11:20.704Z,36.63
2018-06-05T14:13:50.642Z,35.30
2018-06-05T14:16:20.509Z,36.80
2018-06-05T14:18:50.640Z,34.77
2018-06-05T14:21:20.560Z,36.87
2018-06-05T14:23:50.559Z,32.93
2018-06-05T14:26:20.459Z,32.83
2018-06-05T14:28:50.565Z,31.70
2018-06-05T14:31:20.485Z,31.40
2018-06-05T14:33:50.494Z,30.37
2018-06-05T14:36:20.391Z,30.70
2018-06-05T14:38:50.435Z,28.57
2018-06-05T14:41:20.965Z,27.27
2018-06-05T14:43:52.007Z,27.07
2018-06-05T14:46:22.249Z,27.97
2018-06-05T14:48:52.350Z,26.80
2018-06-05T14:51:22.627Z,26.43
2018-06-05T14:53:52.728Z,25.83
2018-06-05T14:56:22.837Z,24.80
2018-06-05T14:58:53.112Z,25.37
2018-06-05T15:01:22.841Z,25.10
2018-06-05T15:03:53.058Z,24.30
2018-06-05T15:06:23.427Z,24.23
2018-06-05T15:08:53.763Z,24.00
2018-06-05T15:11:23.857Z,23.80
2018-06-05T15:13:53.866Z,23.07
2018-06-05T15:16:23.845Z,22.83
2018-06-05T15:18:53.971Z,22.63
2018-06-05T15:21:24.333Z,21.53
2018-06-05T15:23:55.058Z,21.70
2018-06-05T15:26:25.137Z,22.17
2018-06-05T15:28:55.057Z,20.93
2018-06-05T15:31:25.092Z,20.97
2018-06-05T15:33:54.992Z,21.07
2018-06-05T15:36:25.065Z,20.17
2018-06-05T15:38:55.163Z,20.23
2018-06-05T15:41:25.196Z,20.13
2018-06-05T15:43:54.975Z,20.03
2018-06-05T15:46:24.790Z,18.70
2018-06-05T15:48:54.739Z,18.90
2018-06-05T15:51:25.901Z,18.80
2018-06-05T15:53:55.862Z,17.50
2018-06-05T15:56:25.777Z,19.90
2018-06-05T15:58:56.107Z,17.27
2018-06-05T16:01:26.115Z,17.40
2018-06-05T16:03:56.169Z,17.03
2018-06-05T16:06:26.612Z,18.17
2018-06-05T16:08:56.843Z,16.10
2018-06-05T16:11:26.849Z,16.10
2018-06-05T16:13:57.189Z,17.20
2018-06-05T16:16:27.261Z,15.90
2018-06-05T16:18:57.095Z,16.60
2018-06-05T16:21:27.684Z,15.53
2018-06-05T16:23:57.606Z,14.80
2018-06-05T16:26:27.554Z,15.10
2018-06-05T16:28:58.885Z,14.57
2018-06-05T16:31:28.318Z,14.47
2018-06-05T16:33:58.149Z,14.73
2018-06-05T16:36:28.198Z,13.40
2018-06-05T16:38:58.219Z,14.40
2018-06-05T16:41:27.948Z,14.10
2018-06-05T16:43:57.679Z,14.23
2018-06-05T16:46:27.592Z,14.37
2018-06-05T16:48:57.332Z,14.10
2018-06-05T16:51:27.196Z,15.23
2018-06-05T16:53:57.693Z,13.73
2018-06-05T16:56:27.628Z,14.70
2018-06-05T16:58:58.920Z,15.30
2018-06-05T17:01:29.505Z,13.80
2018-06-05T17:04:00.250Z,13.80
2018-06-05T17:06:31.243Z,13.47
2018-06-05T17:09:00.954Z,13.30
2018-06-05T17:11:30.715Z,13.87
2018-06-05T17:14:00.480Z,14.57
2018-06-05T17:16:30.279Z,15.77
2018-06-05T17:18:59.990Z,14.80
2018-06-05T17:21:29.793Z,14.83
2018-06-05T17:24:00.250Z,14.67
2018-06-05T17:26:30.102Z,13.40
2018-06-05T17:28:59.872Z,15.07
2018-06-05T17:31:30.284Z,16.77
2018-06-05T17:33:59.985Z,16.63
2018-06-05T17:36:30.014Z,16.80
2018-06-05T17:38:59.839Z,16.73
2018-06-05T17:41:29.776Z,16.57
2018-06-05T17:44:03.723Z,15.40
2018-06-05T17:46:33.599Z,15.77
2018-06-05T17:49:03.880Z,13.30
2018-06-05T17:51:33.707Z,14.13
2018-06-05T17:54:03.581Z,13.87
2018-06-05T17:56:33.495Z,12.60
2018-06-05T17:59:03.342Z,14.03
2018-06-05T18:01:32.592Z,15.10
2018-06-05T18:04:02.402Z,13.57
2018-06-05T18:06:32.300Z,13.67
2018-06-05T18:09:02.126Z,14.73
2018-06-05T18:11:31.932Z,12.63
2018-06-05T18:14:01.683Z,12.57
2018-06-05T18:16:30.669Z,11.43
2018-06-05T18:19:00.466Z,10.53
2018-06-05T18:21:30.188Z,10.37
2018-06-05T18:24:00.104Z,10.53
2018-06-05T18:26:29.979Z,10.13
2018-06-05T18:28:59.924Z,9.30
2018-06-05T18:31:29.870Z,10.23
2018-06-05T18:34:00.064Z,8.90
2018-06-05T18:36:29.888Z,8.60
2018-06-05T18:38:59.930Z,8.13
2018-06-05T18:41:29.193Z,8.30
2018-06-05T18:43:59.243Z,7.67
2018-06-05T18:46:29.236Z,6.67
2018-06-05T18:48:59.203Z,7.77
2018-06-05T18:51:29.253Z,8.30
2018-06-05T18:53:59.193Z,7.97
2018-06-05T18:56:29.084Z,7.27
2018-06-05T18:59:00.338Z,6.67
2018-06-05T19:01:30.350Z,6.70
2018-06-05T19:04:00.206Z,5.67
2018-06-05T19:06:30.277Z,5.70
2018-06-05T19:09:00.294Z,5.10
2018-06-05T19:11:30.210Z,5.27
2018-06-05T19:14:00.914Z,5.23
2018-06-05T19:16:30.915Z,4.77
2018-06-05T19:19:00.673Z,4.63
2018-06-05T19:21:30.655Z,4.50
2018-06-05T19:24:00.521Z,4.60
2018-06-05T19:26:30.293Z,4.10
2018-06-05T19:28:59.551Z,3.60
2018-06-05T19:31:28.833Z,3.60
2018-06-05T19:33:58.069Z,3.93
2018-06-05T19:36:27.669Z,4.07
2018-06-05T19:38:56.969Z,3.77
2018-06-05T19:41:26.413Z,3.87
2018-06-05T19:43:55.626Z,3.70
2018-06-05T19:46:24.860Z,3.00
2018-06-05T19:48:54.024Z,3.40
2018-06-05T19:51:23.232Z,3.50
2018-06-05T19:53:52.429Z,3.60
2018-06-05T19:56:21.623Z,4.10
2018-06-05T19:58:50.814Z,4.67
2018-06-05T20:01:20.023Z,4.40
2018-06-05T20:03:48.712Z,4.50
2018-06-05T20:06:17.979Z,3.77
2018-06-05T20:08:47.555Z,3.87
2018-06-05T20:11:16.909Z,3.70
2018-06-05T20:13:46.157Z,4.03
2018-06-05T20:16:15.338Z,3.63
2018-06-05T20:18:44.502Z,3.30
2018-06-05T20:21:13.699Z,3.70
2018-06-05T20:23:42.867Z,3.07
2018-06-05T20:26:12.097Z,3.07
2018-06-05T20:28:41.309Z,3.10
2018-06-05T20:31:10.596Z,3.27
2018-06-05T20:33:39.801Z,3.17
2018-06-05T20:36:09.072Z,2.90
2018-06-05T20:38:38.255Z,3.17
2018-06-05T20:41:07.589Z,3.10
2018-06-05T20:43:36.821Z,3.00
2018-06-05T20:46:06.108Z,3.10
2018-06-05T20:48:35.294Z,3.20
2018-06-05T20:51:04.512Z,2.77
2018-06-05T20:53:33.728Z,2.50
2018-06-05T20:56:02.928Z,2.97
2018-06-05T20:58:32.177Z,3.03
2018-06-05T21:01:01.388Z,2.93
2018-06-05T21:03:30.573Z,3.00
2018-06-05T21:05:59.773Z,2.90
2018-06-05T21:08:28.976Z,2.70
2018-06-05T21:10:58.171Z,2.87
2018-06-05T21:13:27.726Z,3.00
2018-06-05T21:15:56.942Z,3.00
2018-06-05T21:18:26.176Z,3.10
2018-06-05T21:20:55.381Z,2.37
2018-06-05T21:23:24.574Z,2.80
2018-06-05T21:25:53.815Z,2.80
2018-06-05T21:28:23.072Z,2.87
2018-06-05T21:30:52.315Z,2.60
2018-06-05T21:33:21.583Z,3.13
2018-06-05T21:35:50.770Z,2.90
2018-06-05T21:38:19.965Z,2.97
2018-06-05T21:40:49.210Z,2.63
2018-06-05T21:43:18.425Z,2.80
2018-06-05T21:45:48.014Z,2.60
2018-06-05T21:48:17.704Z,2.40
2018-06-05T21:50:46.984Z,2.70
2018-06-05T21:53:16.180Z,2.47
2018-06-05T21:55:45.378Z,2.10
2018-06-05T21:58:14.543Z,2.80
2018-06-05T22:00:43.768Z,2.50
2018-06-05T22:03:12.969Z,2.40
2018-06-05T22:05:42.170Z,2.60
2018-06-05T22:08:11.364Z,2.53
2018-06-05T22:10:40.561Z,2.67
2018-06-05T22:13:09.760Z,2.10
2018-06-05T22:15:38.957Z,2.23
2018-06-05T22:18:08.161Z,2.53
2018-06-05T22:20:37.396Z,2.30
2018-06-05T22:23:06.653Z,2.33
2018-06-05T22:25:35.829Z,2.57
2018-06-05T22:28:04.999Z,2.40
2018-06-05T22:30:34.255Z,2.70
2018-06-05T22:33:03.450Z,2.60
2018-06-05T22:35:32.636Z,2.30
2018-06-05T22:38:01.889Z,2.63
2018-06-05T22:40:31.143Z,2.20
2018-06-05T22:43:00.317Z,2.20
2018-06-05T22:45:29.480Z,2.20
2018-06-05T22:47:58.682Z,2.10
2018-06-05T22:50:28.388Z,2.40
2018-06-05T22:52:57.612Z,2.13
2018-06-05T22:55:26.835Z,2.43
2018-06-05T22:57:56.087Z,2.27
2018-06-05T23:00:33.410Z,2.00
2018-06-05T23:03:02.701Z,2.30
2018-06-05T23:05:31.936Z,2.17
2018-06-05T23:08:01.199Z,2.10
2018-06-05T23:10:30.606Z,2.27
2018-06-05T23:12:59.872Z,2.33
2018-06-05T23:15:29.158Z,2.30
2018-06-05T23:17:58.408Z,2.40
2018-06-05T23:20:27.705Z,2.10
2018-06-05T23:22:57.281Z,2.30
2018-06-05T23:25:26.669Z,2.30
2018-06-05T23:27:56.171Z,2.37
2018-06-05T23:30:25.524Z,2.30
2018-06-05T23:32:54.800Z,2.40
2018-06-05T23:35:24.052Z,2.37
2018-06-05T23:37:52.804Z,2.50
2018-06-05T23:40:22.110Z,2.10
2018-06-05T23:42:51.438Z,2.10
2018-06-05T23:45:20.719Z,2.43
2018-06-05T23:47:50.032Z,2.13
2018-06-05T23:50:19.308Z,2.10
2018-06-05T23:52:48.538Z,1.80
2018-06-05T23:55:17.899Z,2.20
2018-06-05T23:57:47.458Z,1.80
